createdAt,value
2019-03-24T00:00:00.446Z,5.50
2019-03-24T00:02:32.608Z,5.50
2019-03-24T00:05:04.347Z,5.60
2019-03-24T00:07:37.010Z,5.50
2019-03-24T00:10:09.153Z,5.60
2019-03-24T00:12:40.798Z,5.70
2019-03-24T00:15:12.644Z,5.70
2019-03-24T00:17:44.614Z,5.80
2019-03-24T00:20:16.622Z,5.80
2019-03-24T00:22:48.292Z,5.80
2019-03-24T00:25:20.261Z,5.80
2019-03-24T00:27:51.937Z,5.80
2019-03-24T00:30:23.636Z,5.70
2019-03-24T00:32:55.425Z,5.70
2019-03-24T00:35:27.668Z,5.70
2019-03-24T00:37:59.252Z,5.70
2019-03-24T00:40:30.826Z,5.50
2019-03-24T00:43:03.515Z,5.50
2019-03-24T00:45:36.971Z,5.50
2019-03-24T00:48:09.196Z,5.60
2019-03-24T00:50:40.903Z,5.40
2019-03-24T00:53:12.679Z,5.40
2019-03-24T00:55:46.212Z,5.30
2019-03-24T00:58:19.078Z,4.90
2019-03-24T01:00:51.755Z,4.90
2019-03-24T01:03:23.613Z,5.10
2019-03-24T01:05:55.586Z,5.20
2019-03-24T01:08:27.603Z,5.20
2019-03-24T01:10:59.375Z,5.10
2019-03-24T01:13:31.203Z,5.00
2019-03-24T01:16:03.017Z,5.00
2019-03-24T01:18:34.744Z,5.00
2019-03-24T01:21:06.516Z,5.00
2019-03-24T01:23:38.252Z,5.10
2019-03-24T01:26:09.991Z,5.10
2019-03-24T01:28:42.609Z,5.10
2019-03-24T01:31:15.335Z,5.20
2019-03-24T01:33:46.918Z,5.20
2019-03-24T01:36:18.507Z,5.00
2019-03-24T01:38:50.322Z,5.00
2019-03-24T01:41:22.680Z,5.10
2019-03-24T01:43:54.337Z,5.20
2019-03-24T01:46:26.308Z,5.20
2019-03-24T01:48:57.937Z,5.20
2019-03-24T01:51:29.710Z,5.20
2019-03-24T01:54:01.525Z,5.10
2019-03-24T01:56:33.383Z,5.10
2019-03-24T01:59:05.252Z,5.00
2019-03-24T02:01:38.535Z,4.90
2019-03-24T02:04:10.145Z,4.90
2019-03-24T02:06:41.750Z,4.60
2019-03-24T02:09:13.362Z,4.50
2019-03-24T02:11:45.253Z,4.50
2019-03-24T02:14:17.523Z,4.50
2019-03-24T02:16:49.375Z,4.50
2019-03-24T02:19:21.307Z,4.50
2019-03-24T02:21:53.086Z,4.60
2019-03-24T02:24:25.234Z,4.70
2019-03-24T02:26:57.045Z,4.90
2019-03-24T02:29:28.939Z,5.00
2019-03-24T02:32:00.880Z,6.10
2019-03-24T02:34:32.452Z,5.10
2019-03-24T02:37:04.162Z,5.10
2019-03-24T02:39:36.618Z,5.10
2019-03-24T02:42:08.285Z,5.10
2019-03-24T02:44:40.050Z,5.10
2019-03-24T02:47:12.731Z,5.10
2019-03-24T02:49:44.393Z,5.00
2019-03-24T02:52:16.163Z,5.00
2019-03-24T02:54:47.807Z,5.00
2019-03-24T02:57:19.622Z,5.00
2019-03-24T02:59:53.350Z,5.00
2019-03-24T03:02:43.647Z,5.00
2019-03-24T03:05:15.489Z,5.00
2019-03-24T03:07:47.397Z,5.00
2019-03-24T03:10:19.116Z,5.10
2019-03-24T03:12:50.877Z,5.10
2019-03-24T03:15:22.674Z,5.10
2019-03-24T03:17:54.533Z,5.10
2019-03-24T03:20:27.400Z,5.10
2019-03-24T03:22:59.066Z,5.10
2019-03-24T03:25:30.641Z,5.10
2019-03-24T03:28:02.438Z,5.10
2019-03-24T03:33:15.451Z,5.20
2019-03-24T03:35:48.092Z,5.20
2019-03-24T03:38:20.008Z,5.20
2019-03-24T03:40:51.615Z,5.30
2019-03-24T03:43:24.367Z,5.30
2019-03-24T03:45:55.930Z,5.30
2019-03-24T03:48:27.779Z,5.20
2019-03-24T03:50:59.410Z,5.30
2019-03-24T03:53:32.253Z,5.30
2019-03-24T03:56:03.809Z,5.30
2019-03-24T03:58:36.330Z,5.30
2019-03-24T04:01:07.955Z,5.30
2019-03-24T04:03:39.530Z,5.30
2019-03-24T04:06:11.252Z,5.10
2019-03-24T04:08:42.831Z,5.00
2019-03-24T04:11:14.406Z,5.00
2019-03-24T04:13:46.121Z,4.90
2019-03-24T04:16:17.696Z,4.90
2019-03-24T04:18:49.605Z,4.80
2019-03-24T04:21:21.283Z,5.00
2019-03-24T04:23:52.948Z,5.10
2019-03-24T04:26:24.742Z,5.00
2019-03-24T04:28:56.446Z,5.10
2019-03-24T04:31:28.074Z,5.10
2019-03-24T04:33:59.808Z,5.10
2019-03-24T04:36:31.387Z,5.30
2019-03-24T04:39:04.870Z,5.90
2019-03-24T04:41:36.532Z,6.10
2019-03-24T04:44:08.357Z,6.50
2019-03-24T04:46:39.794Z,7.10
2019-03-24T04:49:12.641Z,7.80
2019-03-24T04:51:44.329Z,7.80
2019-03-24T04:54:17.243Z,7.90
2019-03-24T04:56:48.746Z,7.30
2019-03-24T04:59:21.696Z,7.20
2019-03-24T05:01:53.221Z,7.90
2019-03-24T05:04:26.008Z,8.20
2019-03-24T05:06:57.986Z,8.70
2019-03-24T05:09:29.758Z,9.40
2019-03-24T05:12:01.261Z,10.00
2019-03-24T05:14:33.277Z,10.20
2019-03-24T05:17:05.059Z,10.50
2019-03-24T05:19:37.038Z,10.50
2019-03-24T05:22:08.575Z,10.20
2019-03-24T05:24:40.257Z,10.20
2019-03-24T05:27:12.419Z,10.70
2019-03-24T05:29:44.196Z,10.90
2019-03-24T05:32:15.872Z,10.70
2019-03-24T05:34:57.583Z,10.00
2019-03-24T05:37:29.212Z,10.10
2019-03-24T05:40:01.069Z,10.30
2019-03-24T05:42:32.816Z,10.60
2019-03-24T05:45:04.509Z,11.10
2019-03-24T05:47:37.318Z,11.10
2019-03-24T05:50:09.930Z,11.00
2019-03-24T05:52:42.680Z,11.20
2019-03-24T05:55:14.644Z,11.50
2019-03-24T05:57:46.324Z,11.70
2019-03-24T06:00:18.574Z,11.40
2019-03-24T06:02:50.295Z,11.60
2019-03-24T06:05:21.962Z,11.90
2019-03-24T06:07:53.655Z,12.10
2019-03-24T06:10:25.334Z,12.30
2019-03-24T06:12:57.795Z,12.60
2019-03-24T06:15:29.406Z,12.60
2019-03-24T06:18:03.828Z,13.10
2019-03-24T06:20:35.496Z,13.40
2019-03-24T06:23:07.538Z,13.00
2019-03-24T06:25:39.432Z,13.30
2019-03-24T06:28:10.880Z,13.50
2019-03-24T06:30:42.452Z,13.80
2019-03-24T06:33:14.231Z,13.50
2019-03-24T06:35:46.029Z,13.50
2019-03-24T06:38:17.611Z,13.40
2019-03-24T06:40:49.432Z,13.20
2019-03-24T06:43:22.478Z,13.20
2019-03-24T06:45:55.162Z,13.20
2019-03-24T06:48:27.009Z,13.40
2019-03-24T06:50:59.291Z,13.50
2019-03-24T06:53:31.035Z,13.30
2019-03-24T06:56:02.789Z,13.40
2019-03-24T06:58:36.246Z,13.30
2019-03-24T07:01:08.222Z,13.50
2019-03-24T07:03:39.957Z,13.70
2019-03-24T07:06:11.668Z,13.60
2019-03-24T07:08:43.533Z,13.20
2019-03-24T07:11:15.418Z,13.40
2019-03-24T07:13:47.122Z,13.60
2019-03-24T07:16:20.362Z,13.60
2019-03-24T07:18:52.021Z,13.80
2019-03-24T07:21:27.886Z,14.10
2019-03-24T07:24:00.649Z,14.30
2019-03-24T07:26:33.719Z,14.40
2019-03-24T07:29:05.375Z,14.40
2019-03-24T07:31:37.462Z,14.40
2019-03-24T07:34:09.939Z,14.40
2019-03-24T07:36:41.559Z,14.00
2019-03-24T07:39:18.660Z,14.00
2019-03-24T07:42:05.577Z,14.50
2019-03-24T07:44:38.122Z,14.50
2019-03-24T07:47:15.093Z,14.70
2019-03-24T07:49:46.666Z,14.30
2019-03-24T07:52:19.272Z,14.60
2019-03-24T07:54:51.001Z,15.10
2019-03-24T07:57:22.869Z,15.20
2019-03-24T07:59:54.377Z,15.60
2019-03-24T08:02:26.396Z,15.20
2019-03-24T08:04:57.961Z,15.50
2019-03-24T08:07:29.492Z,15.50
2019-03-24T08:10:01.189Z,16.00
2019-03-24T08:12:32.942Z,15.90
2019-03-24T08:15:04.718Z,16.40
2019-03-24T08:17:36.356Z,16.30
2019-03-24T08:20:08.423Z,16.00
2019-03-24T08:22:40.933Z,16.30
2019-03-24T08:25:12.774Z,16.30
2019-03-24T08:27:44.643Z,16.00
2019-03-24T08:30:20.216Z,16.20
2019-03-24T08:32:52.991Z,16.40
2019-03-24T08:35:24.714Z,16.30
2019-03-24T08:37:56.463Z,16.20
2019-03-24T08:40:28.416Z,15.90
2019-03-24T08:43:00.044Z,16.00
2019-03-24T08:45:33.424Z,15.40
2019-03-24T08:48:05.504Z,15.00
2019-03-24T08:50:37.330Z,15.00
2019-03-24T08:53:09.083Z,15.80
2019-03-24T08:55:40.827Z,16.40
2019-03-24T08:58:13.531Z,14.70
2019-03-24T09:00:45.246Z,13.90
2019-03-24T09:03:17.008Z,14.60
2019-03-24T09:05:49.526Z,15.10
2019-03-24T09:08:21.200Z,14.40
2019-03-24T09:10:52.863Z,14.50
2019-03-24T09:13:24.897Z,15.30
2019-03-24T09:15:56.712Z,15.70
2019-03-24T09:18:28.574Z,16.30
2019-03-24T09:21:00.571Z,16.20
2019-03-24T09:23:32.306Z,15.90
2019-03-24T09:26:03.969Z,15.00
2019-03-24T09:28:35.728Z,14.30
2019-03-24T09:31:07.479Z,13.80
2019-03-24T09:33:39.320Z,13.70
2019-03-24T09:36:11.005Z,14.10
2019-03-24T09:38:42.727Z,14.50
2019-03-24T09:41:14.700Z,14.10
2019-03-24T09:43:48.054Z,14.10
2019-03-24T09:46:21.800Z,14.60
2019-03-24T09:49:02.623Z,15.20
2019-03-24T09:51:25.852Z,15.40
2019-03-24T09:53:57.582Z,15.50
2019-03-24T09:56:29.324Z,14.70
2019-03-24T09:59:01.235Z,14.30
2019-03-24T10:01:32.966Z,14.30
2019-03-24T10:04:04.631Z,14.80
2019-03-24T10:06:36.559Z,14.20
2019-03-24T10:09:09.986Z,14.10
2019-03-24T10:11:42.795Z,13.90
2019-03-24T10:14:14.928Z,13.90
2019-03-24T10:16:46.866Z,14.80
2019-03-24T10:19:18.794Z,14.30
2019-03-24T10:21:50.352Z,14.00
2019-03-24T10:24:22.199Z,14.00
2019-03-24T10:26:54.416Z,13.40
2019-03-24T10:29:26.220Z,13.30
2019-03-24T10:31:57.936Z,13.10
2019-03-24T10:34:29.626Z,13.30
2019-03-24T10:37:02.246Z,13.20
2019-03-24T10:39:33.834Z,13.00
2019-03-24T10:42:07.727Z,13.00
2019-03-24T10:44:41.434Z,13.00
2019-03-24T10:47:13.285Z,12.60
2019-03-24T10:49:44.847Z,12.50
2019-03-24T10:52:16.556Z,13.20
2019-03-24T10:54:48.265Z,13.80
2019-03-24T10:57:21.130Z,14.70
2019-03-24T10:59:52.784Z,14.20
2019-03-24T11:02:24.667Z,14.50
2019-03-24T11:04:56.371Z,15.10
2019-03-24T11:07:28.221Z,14.80
2019-03-24T11:10:01.042Z,14.50
2019-03-24T11:12:33.150Z,15.00
2019-03-24T11:15:05.141Z,14.80
2019-03-24T11:17:37.044Z,14.90
2019-03-24T11:20:10.231Z,14.80
2019-03-24T11:22:42.063Z,14.50
2019-03-24T11:25:14.626Z,15.10
2019-03-24T11:27:46.352Z,15.10
2019-03-24T11:30:18.553Z,15.60
2019-03-24T11:32:50.463Z,16.30
2019-03-24T11:35:22.465Z,16.40
2019-03-24T11:37:56.365Z,16.50
2019-03-24T11:40:28.124Z,16.10
2019-03-24T11:43:00.012Z,15.30
2019-03-24T11:45:31.810Z,15.60
2019-03-24T11:48:03.646Z,16.00
2019-03-24T11:50:35.377Z,16.00
2019-03-24T11:53:07.406Z,16.00
2019-03-24T11:55:40.194Z,16.30
2019-03-24T11:58:12.883Z,15.80
2019-03-24T12:00:44.863Z,16.00
2019-03-24T12:03:16.681Z,15.90
2019-03-24T12:05:48.344Z,16.10
2019-03-24T12:08:20.063Z,16.30
2019-03-24T12:10:51.775Z,16.30
2019-03-24T12:13:23.397Z,16.00
2019-03-24T12:15:55.234Z,15.60
2019-03-24T12:18:27.052Z,15.60
2019-03-24T12:20:58.697Z,15.90
2019-03-24T12:23:30.664Z,16.20
2019-03-24T12:26:02.659Z,15.80
2019-03-24T12:28:34.399Z,16.10
2019-03-24T12:31:06.044Z,16.30
2019-03-24T12:33:37.684Z,15.80
2019-03-24T12:36:09.456Z,15.10
2019-03-24T12:38:41.138Z,15.70
2019-03-24T12:41:12.936Z,15.90
2019-03-24T12:43:44.835Z,15.80
2019-03-24T12:46:17.978Z,15.50
2019-03-24T12:48:49.768Z,16.00
2019-03-24T12:51:21.563Z,15.90
2019-03-24T12:53:54.002Z,15.50
2019-03-24T12:56:25.619Z,15.70
2019-03-24T12:58:57.547Z,15.30
2019-03-24T13:01:30.115Z,15.60
2019-03-24T13:04:01.741Z,15.60
2019-03-24T13:06:34.339Z,15.90
2019-03-24T13:09:07.646Z,15.60
2019-03-24T13:11:39.700Z,15.40
2019-03-24T13:14:11.581Z,15.40
2019-03-24T13:16:43.345Z,15.30
2019-03-24T13:19:15.154Z,14.90
2019-03-24T13:21:46.826Z,15.10
2019-03-24T13:24:18.542Z,14.80
2019-03-24T13:26:50.341Z,14.90
2019-03-24T13:29:22.045Z,15.10
2019-03-24T13:31:53.775Z,14.80
2019-03-24T13:34:25.675Z,14.90
2019-03-24T13:36:57.575Z,14.90
2019-03-24T13:39:29.325Z,14.80
2019-03-24T13:42:01.011Z,14.60
2019-03-24T13:44:32.593Z,14.60
2019-03-24T13:47:04.202Z,14.60
2019-03-24T18:25:20.010Z,8.10
2019-03-24T18:27:53.655Z,8.70
2019-03-24T18:30:26.386Z,8.70
2019-03-24T18:32:58.325Z,8.70
2019-03-24T18:35:30.858Z,8.70
2019-03-24T18:38:03.063Z,8.60
2019-03-24T18:40:35.765Z,8.50
2019-03-24T18:43:07.838Z,8.50
2019-03-24T18:45:40.368Z,8.50
2019-03-24T18:48:12.421Z,8.50
2019-03-24T18:50:44.847Z,8.40
2019-03-24T18:53:17.016Z,8.50
2019-03-24T18:55:49.723Z,8.40
2019-03-24T18:58:21.777Z,8.50
2019-03-24T19:00:58.420Z,8.50
2019-03-24T19:03:31.421Z,8.40
2019-03-24T19:06:04.369Z,8.40
2019-03-24T19:08:36.781Z,8.40
2019-03-24T19:11:14.277Z,8.30
2019-03-24T19:13:48.087Z,8.30
2019-03-24T19:16:21.877Z,8.20
2019-03-24T19:18:55.449Z,8.10
2019-03-24T19:21:29.001Z,8.10
2019-03-24T19:24:02.454Z,8.00
2019-03-24T19:26:36.180Z,8.00
2019-03-24T19:29:09.793Z,7.90
2019-03-24T19:31:43.697Z,7.90
2019-03-24T19:34:17.262Z,7.80
2019-03-24T19:36:52.757Z,7.70
2019-03-24T19:39:27.423Z,7.70
2019-03-24T19:42:01.600Z,7.60
2019-03-24T19:44:37.855Z,7.60
2019-03-24T19:47:12.813Z,7.50
2019-03-24T19:49:48.074Z,7.40
2019-03-24T19:52:22.740Z,7.40
2019-03-24T19:54:56.715Z,7.30
2019-03-24T19:57:31.333Z,7.30
2019-03-24T20:00:04.714Z,7.20
2019-03-24T20:02:40.071Z,7.20
2019-03-24T20:05:13.637Z,7.10
2019-03-24T20:07:48.154Z,7.10
2019-03-24T20:10:20.562Z,7.10
2019-03-24T20:12:52.993Z,7.00
2019-03-24T20:15:25.324Z,7.00
2019-03-24T20:17:57.464Z,7.00
2019-03-24T20:20:29.577Z,7.00
2019-03-24T20:23:03.133Z,6.80
2019-03-24T20:25:35.315Z,6.80
2019-03-24T20:28:07.850Z,6.80
2019-03-24T20:30:40.075Z,6.90
2019-03-24T20:33:13.504Z,7.00
2019-03-24T20:36:04.267Z,7.00
2019-03-24T20:38:36.559Z,7.00
2019-03-24T20:41:08.728Z,7.10
2019-03-24T20:43:41.113Z,7.10
2019-03-24T20:46:13.228Z,7.00
2019-03-24T20:48:45.150Z,7.00
2019-03-24T20:51:17.630Z,7.00
2019-03-24T20:53:49.866Z,7.00
2019-03-24T20:56:21.643Z,6.90
2019-03-24T20:58:53.949Z,6.90
2019-03-24T21:01:26.117Z,6.90
2019-03-24T21:03:58.434Z,6.90
2019-03-24T21:06:30.799Z,7.00
2019-03-24T21:09:04.428Z,7.10
2019-03-24T21:11:37.468Z,7.10
2019-03-24T21:14:09.683Z,7.00
2019-03-24T21:16:41.824Z,7.00
2019-03-24T21:19:14.234Z,7.00
2019-03-24T21:21:47.462Z,7.00
2019-03-24T21:24:19.868Z,6.90
2019-03-24T21:26:52.132Z,6.90
2019-03-24T21:29:24.874Z,6.80
2019-03-24T21:31:57.356Z,6.80
2019-03-24T21:34:29.621Z,6.70
2019-03-24T21:37:01.632Z,6.60
2019-03-24T21:39:35.137Z,6.60
2019-03-24T21:42:07.563Z,6.50
2019-03-24T21:44:39.973Z,6.50
2019-03-24T21:47:12.000Z,6.30
2019-03-24T21:49:44.883Z,6.20
2019-03-24T21:52:17.088Z,6.10
2019-03-24T21:54:49.325Z,6.00
2019-03-24T21:57:21.606Z,5.80
2019-03-24T21:59:53.795Z,5.80
2019-03-24T22:02:25.862Z,5.70
2019-03-24T22:04:58.060Z,5.60
2019-03-24T22:07:30.268Z,5.60
2019-03-24T22:10:02.527Z,5.50
2019-03-24T22:12:35.310Z,5.50
2019-03-24T22:15:08.711Z,5.40
2019-03-24T22:17:59.321Z,5.50
2019-03-24T22:20:32.151Z,5.40
2019-03-24T22:23:04.201Z,5.40
2019-03-24T22:25:36.395Z,5.50
2019-03-24T22:28:08.685Z,5.50
2019-03-24T22:30:52.242Z,5.50
2019-03-24T22:33:25.185Z,5.50
2019-03-24T22:35:58.790Z,5.60
2019-03-24T22:38:30.893Z,5.90
2019-03-24T22:41:03.377Z,5.90
2019-03-24T22:43:35.635Z,5.90
2019-03-24T22:46:08.222Z,6.00
2019-03-24T22:48:40.239Z,6.00
2019-03-24T22:51:12.667Z,6.10
2019-03-24T22:53:45.840Z,6.10
2019-03-24T22:56:18.256Z,6.10
2019-03-24T22:58:50.360Z,6.20
2019-03-24T23:01:23.045Z,6.20
2019-03-24T23:03:55.561Z,6.10
2019-03-24T23:06:27.459Z,6.10
2019-03-24T23:08:59.810Z,6.00
2019-03-24T23:11:33.107Z,5.90
2019-03-24T23:14:05.358Z,5.90
2019-03-24T23:16:37.387Z,5.80
2019-03-24T23:19:09.729Z,5.80
2019-03-24T23:21:41.833Z,5.70
2019-03-24T23:24:32.494Z,5.70
2019-03-24T23:27:05.003Z,5.70
2019-03-24T23:29:37.199Z,5.70
2019-03-24T23:32:09.543Z,5.70
2019-03-24T23:34:41.670Z,5.60
2019-03-24T23:37:14.129Z,5.60
2019-03-24T23:39:46.407Z,5.60
2019-03-24T23:42:19.652Z,5.70
2019-03-24T23:44:51.636Z,5.70
2019-03-24T23:47:25.047Z,5.60
2019-03-24T23:49:57.413Z,5.60
2019-03-24T23:52:29.713Z,5.60
2019-03-24T23:55:20.178Z,5.60
2019-03-24T23:57:52.869Z,5.60
